sensor_id;sensor_type;location;lat;lon;timestamp;P1;durP1;ratioP1;P2;durP2;ratioP2
77880;SDS011;67077;50.298;18.996;2024-01-15T00:01:00;22.40;;;10.80;;
77880;SDS011;67077;50.298;18.996;2024-01-15T00:03:48;22.60;;;10.70;;
77880;SDS011;67077;50.298;18.996;2024-01-15T00:06:16;22.00;;;10.70;;
77880;SDS011;67077;50.298;18.996;2024-01-15T00:08:44;23.20;;;10.90;;
77880;SDS011;67077;50.298;18.996;2024-01-15T00:11:11;22.20;;;10.30;;
77880;SDS011;67077;50.298;18.996;2024-01-15T00:13:39;20.00;;;10.00;;
77880;SDS011;67077;50.298;18.996;2024-01-15T00:16:07;21.40;;;11.00;;
77880;SDS011;67077;50.298;18.996;2024-01-15T00:18:35;20.90;;;10.80;;
77880;SDS011;67077;50.298;18.996;2024-01-15T00:21:02;21.20;;;10.20;;
77880;SDS011;67077;50.298;18.996;2024-01-15T00:23:30;22.10;;;10.50;;
77880;SDS011;67077;50.298;18.996;2024-01-15T00:25:58;21.70;;;10.50;;
77880;SDS011;67077;50.298;18.996;2024-01-15T00:28:26;19.30;;;9.50;;
77880;SDS011;67077;50.298;18.996;2024-01-15T00:30:53;21.60;;;10.10;;
77880;SDS011;67077;50.298;18.996;2024-01-15T00:33:21;21.90;;;10.50;;
77880;SDS011;67077;50.298;18.996;2024-01-15T00:35:49;20.80;;;9.20;;
77880;SDS011;67077;50.298;18.996;2024-01-15T00:38:17;20.90;;;9.70;;
77880;SDS011;67077;50.298;18.996;2024-01-15T00:40:45;20.20;;;9.60;;
77880;SDS011;67077;50.298;18.996;2024-01-15T00:43:13;24.50;;;10.40;;
77880;SDS011;67077;50.298;18.996;2024-01-15T00:45:41;19.80;;;9.80;;
77880;SDS011;67077;50.298;18.996;2024-01-15T00:48:08;18.80;;;8.90;;
77880;SDS011;67077;50.298;18.996;2024-01-15T00:50:37;22.30;;;9.80;;
77880;SDS011;67077;50.298;18.996;2024-01-15T00:53:05;19.70;;;9.50;;
77880;SDS011;67077;50.298;18.996;2024-01-15T00:55:33;19.40;;;9.60;;
77880;SDS011;67077;50.298;18.996;2024-01-15T00:58:01;21.50;;;10.10;;
77880;SDS011;67077;50.298;18.996;2024-01-15T01:00:28;19.10;;;9.40;;
77880;SDS011;67077;50.298;18.996;2024-01-15T01:02:56;19.20;;;9.10;;
77880;SDS011;67077;50.298;18.996;2024-01-15T01:05:24;20.60;;;9.30;;
77880;SDS011;67077;50.298;18.996;2024-01-15T01:07:52;19.00;;;9.40;;
77880;SDS011;67077;50.298;18.996;2024-01-15T01:10:20;19.60;;;9.40;;
77880;SDS011;67077;50.298;18.996;2024-01-15T01:12:47;20.00;;;9.50;;
77880;SDS011;67077;50.298;18.996;2024-01-15T01:15:15;19.50;;;9.80;;
77880;SDS011;67077;50.298;18.996;2024-01-15T01:17:43;20.20;;;9.40;;
77880;SDS011;67077;50.298;18.996;2024-01-15T01:20:11;21.20;;;8.90;;
77880;SDS011;67077;50.298;18.996;2024-01-15T01:22:39;18.80;;;9.10;;
77880;SDS011;67077;50.298;18.996;2024-01-15T01:25:07;19.20;;;9.10;;
77880;SDS011;67077;50.298;18.996;2024-01-15T01:27:35;18.80;;;9.20;;
77880;SDS011;67077;50.298;18.996;2024-01-15T01:30:03;18.90;;;8.70;;
77880;SDS011;67077;50.298;18.996;2024-01-15T01:32:31;18.60;;;8.60;;
77880;SDS011;67077;50.298;18.996;2024-01-15T01:34:59;20.50;;;8.80;;
77880;SDS011;67077;50.298;18.996;2024-01-15T01:37:27;16.00;;;8.40;;
77880;SDS011;67077;50.298;18.996;2024-01-15T01:39:55;16.20;;;8.40;;
77880;SDS011;67077;50.298;18.996;2024-01-15T01:42:23;15.30;;;7.80;;
77880;SDS011;67077;50.298;18.996;2024-01-15T01:44:50;20.10;;;9.10;;
77880;SDS011;67077;50.298;18.996;2024-01-15T01:47:18;18.60;;;8.70;;
77880;SDS011;67077;50.298;18.996;2024-01-15T01:49:47;16.60;;;8.30;;
77880;SDS011;67077;50.298;18.996;2024-01-15T01:52:15;14.90;;;7.40;;
77880;SDS011;67077;50.298;18.996;2024-01-15T01:54:43;15.20;;;7.50;;
77880;SDS011;67077;50.298;18.996;2024-01-15T01:57:11;15.10;;;7.70;;
77880;SDS011;67077;50.298;18.996;2024-01-15T01:59:40;15.50;;;7.60;;
77880;SDS011;67077;50.298;18.996;2024-01-15T02:02:08;16.50;;;7.30;;
77880;SDS011;67077;50.298;18.996;2024-01-15T02:04:35;16.70;;;7.40;;
77880;SDS011;67077;50.298;18.996;2024-01-15T02:07:04;14.30;;;7.30;;
77880;SDS011;67077;50.298;18.996;2024-01-15T02:09:32;16.30;;;7.90;;
77880;SDS011;67077;50.298;18.996;2024-01-15T02:11:59;15.80;;;8.10;;
77880;SDS011;67077;50.298;18.996;2024-01-15T02:14:27;16.10;;;8.00;;
77880;SDS011;67077;50.298;18.996;2024-01-15T02:16:55;15.00;;;7.50;;
77880;SDS011;67077;50.298;18.996;2024-01-15T02:19:24;15.20;;;8.10;;
77880;SDS011;67077;50.298;18.996;2024-01-15T02:21:51;13.00;;;7.30;;
77880;SDS011;67077;50.298;18.996;2024-01-15T02:24:19;14.20;;;6.60;;
77880;SDS011;67077;50.298;18.996;2024-01-15T02:26:47;14.40;;;7.10;;
77880;SDS011;67077;50.298;18.996;2024-01-15T02:29:16;13.90;;;7.20;;
77880;SDS011;67077;50.298;18.996;2024-01-15T02:31:45;13.70;;;7.30;;
77880;SDS011;67077;50.298;18.996;2024-01-15T02:34:12;13.50;;;7.00;;
77880;SDS011;67077;50.298;18.996;2024-01-15T02:36:40;13.90;;;6.60;;
77880;SDS011;67077;50.298;18.996;2024-01-15T02:39:08;13.80;;;6.60;;
77880;SDS011;67077;50.298;18.996;2024-01-15T02:41:36;16.10;;;7.40;;
77880;SDS011;67077;50.298;18.996;2024-01-15T02:44:04;15.10;;;7.60;;
77880;SDS011;67077;50.298;18.996;2024-01-15T02:46:31;13.50;;;6.70;;
77880;SDS011;67077;50.298;18.996;2024-01-15T02:49:02;13.30;;;6.90;;
77880;SDS011;67077;50.298;18.996;2024-01-15T02:51:30;13.60;;;7.10;;
77880;SDS011;67077;50.298;18.996;2024-01-15T02:53:58;13.80;;;7.10;;
77880;SDS011;67077;50.298;18.996;2024-01-15T02:56:26;11.50;;;6.30;;
77880;SDS011;67077;50.298;18.996;2024-01-15T02:58:54;13.00;;;6.70;;
77880;SDS011;67077;50.298;18.996;2024-01-15T03:01:21;11.60;;;6.20;;
77880;SDS011;67077;50.298;18.996;2024-01-15T03:03:49;14.00;;;6.50;;
77880;SDS011;67077;50.298;18.996;2024-01-15T03:06:17;13.10;;;5.90;;
77880;SDS011;67077;50.298;18.996;2024-01-15T03:08:45;14.50;;;6.00;;
77880;SDS011;67077;50.298;18.996;2024-01-15T03:11:12;14.20;;;6.30;;
77880;SDS011;67077;50.298;18.996;2024-01-15T03:13:40;11.70;;;6.10;;
77880;SDS011;67077;50.298;18.996;2024-01-15T03:16:08;9.90;;;4.90;;
77880;SDS011;67077;50.298;18.996;2024-01-15T03:18:36;11.50;;;5.60;;
77880;SDS011;67077;50.298;18.996;2024-01-15T03:21:04;12.20;;;5.70;;
77880;SDS011;67077;50.298;18.996;2024-01-15T03:23:32;11.50;;;5.60;;
77880;SDS011;67077;50.298;18.996;2024-01-15T03:26:00;9.80;;;5.40;;
77880;SDS011;67077;50.298;18.996;2024-01-15T03:28:28;10.80;;;5.30;;
77880;SDS011;67077;50.298;18.996;2024-01-15T03:30:57;10.60;;;5.60;;
77880;SDS011;67077;50.298;18.996;2024-01-15T03:33:25;9.50;;;4.80;;
77880;SDS011;67077;50.298;18.996;2024-01-15T03:35:53;10.80;;;5.50;;
77880;SDS011;67077;50.298;18.996;2024-01-15T03:38:22;9.60;;;5.20;;
77880;SDS011;67077;50.298;18.996;2024-01-15T03:40:50;9.40;;;5.10;;
77880;SDS011;67077;50.298;18.996;2024-01-15T03:43:19;12.10;;;5.90;;
77880;SDS011;67077;50.298;18.996;2024-01-15T03:45:47;14.40;;;6.40;;
77880;SDS011;67077;50.298;18.996;2024-01-15T03:48:15;11.40;;;5.80;;
77880;SDS011;67077;50.298;18.996;2024-01-15T03:50:42;11.00;;;5.90;;
77880;SDS011;67077;50.298;18.996;2024-01-15T03:53:10;10.80;;;5.30;;
77880;SDS011;67077;50.298;18.996;2024-01-15T03:55:38;13.80;;;6.30;;
77880;SDS011;67077;50.298;18.996;2024-01-15T03:58:06;11.20;;;6.00;;
77880;SDS011;67077;50.298;18.996;2024-01-15T04:00:33;12.60;;;5.80;;
77880;SDS011;67077;50.298;18.996;2024-01-15T04:03:01;13.40;;;6.60;;
77880;SDS011;67077;50.298;18.996;2024-01-15T04:05:29;11.60;;;6.20;;
77880;SDS011;67077;50.298;18.996;2024-01-15T04:07:57;11.00;;;6.40;;
77880;SDS011;67077;50.298;18.996;2024-01-15T04:10:25;13.20;;;6.70;;
77880;SDS011;67077;50.298;18.996;2024-01-15T04:12:53;11.80;;;6.10;;
77880;SDS011;67077;50.298;18.996;2024-01-15T04:15:20;15.00;;;6.80;;
77880;SDS011;67077;50.298;18.996;2024-01-15T04:17:48;12.30;;;6.70;;
77880;SDS011;67077;50.298;18.996;2024-01-15T04:20:16;14.60;;;7.00;;
77880;SDS011;67077;50.298;18.996;2024-01-15T04:22:44;14.60;;;6.90;;
77880;SDS011;67077;50.298;18.996;2024-01-15T04:25:11;11.70;;;5.90;;
77880;SDS011;67077;50.298;18.996;2024-01-15T04:27:39;14.30;;;6.60;;
77880;SDS011;67077;50.298;18.996;2024-01-15T04:30:07;13.40;;;6.70;;
77880;SDS011;67077;50.298;18.996;2024-01-15T04:32:35;15.80;;;7.30;;
77880;SDS011;67077;50.298;18.996;2024-01-15T04:35:03;16.80;;;7.90;;
77880;SDS011;67077;50.298;18.996;2024-01-15T04:37:31;16.00;;;7.40;;
77880;SDS011;67077;50.298;18.996;2024-01-15T04:39:59;14.80;;;7.30;;
77880;SDS011;67077;50.298;18.996;2024-01-15T04:42:27;14.20;;;7.10;;
77880;SDS011;67077;50.298;18.996;2024-01-15T04:44:54;14.40;;;7.20;;
77880;SDS011;67077;50.298;18.996;2024-01-15T04:47:22;15.70;;;7.50;;
77880;SDS011;67077;50.298;18.996;2024-01-15T04:49:50;14.10;;;6.70;;
77880;SDS011;67077;50.298;18.996;2024-01-15T04:52:18;15.90;;;7.10;;
77880;SDS011;67077;50.298;18.996;2024-01-15T04:54:46;14.90;;;6.70;;
77880;SDS011;67077;50.298;18.996;2024-01-15T04:57:14;15.80;;;7.40;;
77880;SDS011;67077;50.298;18.996;2024-01-15T04:59:42;12.50;;;6.40;;
77880;SDS011;67077;50.298;18.996;2024-01-15T05:02:10;14.00;;;7.20;;
77880;SDS011;67077;50.298;18.996;2024-01-15T05:04:37;15.30;;;7.20;;
77880;SDS011;67077;50.298;18.996;2024-01-15T05:07:05;14.50;;;7.20;;
77880;SDS011;67077;50.298;18.996;2024-01-15T05:09:33;15.20;;;7.10;;
77880;SDS011;67077;50.298;18.996;2024-01-15T05:12:01;14.80;;;6.80;;
77880;SDS011;67077;50.298;18.996;2024-01-15T05:14:28;14.30;;;7.00;;
77880;SDS011;67077;50.298;18.996;2024-01-15T05:16:56;14.20;;;7.00;;
77880;SDS011;67077;50.298;18.996;2024-01-15T05:19:24;16.00;;;7.10;;
77880;SDS011;67077;50.298;18.996;2024-01-15T05:21:52;15.20;;;7.50;;
77880;SDS011;67077;50.298;18.996;2024-01-15T05:24:19;18.90;;;7.90;;
77880;SDS011;67077;50.298;18.996;2024-01-15T05:26:47;17.20;;;7.50;;
77880;SDS011;67077;50.298;18.996;2024-01-15T05:29:15;18.60;;;8.20;;
77880;SDS011;67077;50.298;18.996;2024-01-15T05:31:43;17.00;;;7.90;;
77880;SDS011;67077;50.298;18.996;2024-01-15T05:34:11;15.10;;;6.80;;
77880;SDS011;67077;50.298;18.996;2024-01-15T05:36:39;16.00;;;7.50;;
77880;SDS011;67077;50.298;18.996;2024-01-15T05:39:06;16.40;;;8.00;;
77880;SDS011;67077;50.298;18.996;2024-01-15T05:41:34;18.20;;;7.80;;
77880;SDS011;67077;50.298;18.996;2024-01-15T05:44:02;16.00;;;7.30;;
77880;SDS011;67077;50.298;18.996;2024-01-15T05:46:30;14.30;;;6.70;;
77880;SDS011;67077;50.298;18.996;2024-01-15T05:48:58;17.10;;;7.60;;
77880;SDS011;67077;50.298;18.996;2024-01-15T05:51:26;15.40;;;7.60;;
77880;SDS011;67077;50.298;18.996;2024-01-15T05:53:54;13.80;;;6.90;;
77880;SDS011;67077;50.298;18.996;2024-01-15T05:56:21;16.30;;;7.80;;
77880;SDS011;67077;50.298;18.996;2024-01-15T05:58:51;17.20;;;8.10;;
77880;SDS011;67077;50.298;18.996;2024-01-15T06:01:19;17.10;;;8.40;;
77880;SDS011;67077;50.298;18.996;2024-01-15T06:03:47;15.90;;;8.40;;
77880;SDS011;67077;50.298;18.996;2024-01-15T06:06:14;17.10;;;7.90;;
77880;SDS011;67077;50.298;18.996;2024-01-15T06:08:42;16.80;;;8.50;;
77880;SDS011;67077;50.298;18.996;2024-01-15T06:11:10;18.30;;;8.80;;
77880;SDS011;67077;50.298;18.996;2024-01-15T06:13:38;17.30;;;8.30;;
77880;SDS011;67077;50.298;18.996;2024-01-15T06:16:15;17.90;;;8.90;;
77880;SDS011;67077;50.298;18.996;2024-01-15T06:18:47;15.40;;;7.10;;
77880;SDS011;67077;50.298;18.996;2024-01-15T06:21:15;18.20;;;8.80;;
77880;SDS011;67077;50.298;18.996;2024-01-15T06:23:43;18.50;;;8.80;;
77880;SDS011;67077;50.298;18.996;2024-01-15T06:26:11;15.40;;;7.50;;
77880;SDS011;67077;50.298;18.996;2024-01-15T06:28:39;16.00;;;7.60;;
77880;SDS011;67077;50.298;18.996;2024-01-15T06:31:07;19.60;;;9.30;;
77880;SDS011;67077;50.298;18.996;2024-01-15T06:33:35;18.40;;;8.50;;
77880;SDS011;67077;50.298;18.996;2024-01-15T06:36:03;20.50;;;9.80;;
77880;SDS011;67077;50.298;18.996;2024-01-15T06:38:31;20.20;;;9.20;;
77880;SDS011;67077;50.298;18.996;2024-01-15T06:40:59;19.80;;;9.70;;
77880;SDS011;67077;50.298;18.996;2024-01-15T06:43:27;20.30;;;10.00;;
77880;SDS011;67077;50.298;18.996;2024-01-15T06:45:55;21.90;;;9.60;;
77880;SDS011;67077;50.298;18.996;2024-01-15T06:48:23;22.10;;;9.50;;
77880;SDS011;67077;50.298;18.996;2024-01-15T06:50:51;17.40;;;9.00;;
77880;SDS011;67077;50.298;18.996;2024-01-15T06:53:19;22.10;;;9.40;;
77880;SDS011;67077;50.298;18.996;2024-01-15T06:55:48;22.70;;;10.10;;
77880;SDS011;67077;50.298;18.996;2024-01-15T06:58:16;18.20;;;8.90;;
77880;SDS011;67077;50.298;18.996;2024-01-15T07:00:44;19.60;;;9.90;;
77880;SDS011;67077;50.298;18.996;2024-01-15T07:03:12;20.20;;;10.00;;
77880;SDS011;67077;50.298;18.996;2024-01-15T07:05:40;19.70;;;9.60;;
77880;SDS011;67077;50.298;18.996;2024-01-15T07:08:08;21.70;;;10.80;;
77880;SDS011;67077;50.298;18.996;2024-01-15T07:10:36;20.90;;;9.00;;
77880;SDS011;67077;50.298;18.996;2024-01-15T07:13:03;18.30;;;9.50;;
77880;SDS011;67077;50.298;18.996;2024-01-15T07:15:33;23.10;;;10.90;;
77880;SDS011;67077;50.298;18.996;2024-01-15T07:18:00;22.90;;;10.50;;
77880;SDS011;67077;50.298;18.996;2024-01-15T07:20:28;26.80;;;11.00;;
77880;SDS011;67077;50.298;18.996;2024-01-15T07:22:56;21.80;;;10.90;;
77880;SDS011;67077;50.298;18.996;2024-01-15T07:25:24;20.30;;;10.50;;
77880;SDS011;67077;50.298;18.996;2024-01-15T07:27:53;21.20;;;11.10;;
77880;SDS011;67077;50.298;18.996;2024-01-15T07:30:21;19.70;;;10.00;;
77880;SDS011;67077;50.298;18.996;2024-01-15T07:32:49;21.40;;;10.60;;
77880;SDS011;67077;50.298;18.996;2024-01-15T07:35:17;21.10;;;10.20;;
77880;SDS011;67077;50.298;18.996;2024-01-15T07:37:45;20.90;;;10.20;;
77880;SDS011;67077;50.298;18.996;2024-01-15T07:40:13;20.40;;;10.00;;
77880;SDS011;67077;50.298;18.996;2024-01-15T07:42:41;18.30;;;9.20;;
77880;SDS011;67077;50.298;18.996;2024-01-15T07:45:10;20.50;;;8.90;;
77880;SDS011;67077;50.298;18.996;2024-01-15T07:47:38;21.90;;;9.70;;
77880;SDS011;67077;50.298;18.996;2024-01-15T07:50:06;20.50;;;9.30;;
77880;SDS011;67077;50.298;18.996;2024-01-15T07:52:34;19.80;;;9.60;;
77880;SDS011;67077;50.298;18.996;2024-01-15T07:55:02;19.70;;;9.10;;
77880;SDS011;67077;50.298;18.996;2024-01-15T07:57:32;20.50;;;9.70;;
77880;SDS011;67077;50.298;18.996;2024-01-15T08:00:00;19.10;;;9.40;;
77880;SDS011;67077;50.298;18.996;2024-01-15T08:02:29;24.40;;;10.90;;
77880;SDS011;67077;50.298;18.996;2024-01-15T08:04:56;19.30;;;9.50;;
77880;SDS011;67077;50.298;18.996;2024-01-15T08:07:25;20.10;;;10.00;;
77880;SDS011;67077;50.298;18.996;2024-01-15T08:09:53;22.00;;;11.00;;
77880;SDS011;67077;50.298;18.996;2024-01-15T08:12:21;21.00;;;10.30;;
77880;SDS011;67077;50.298;18.996;2024-01-15T08:14:50;22.10;;;10.10;;
77880;SDS011;67077;50.298;18.996;2024-01-15T08:17:17;21.30;;;10.20;;
77880;SDS011;67077;50.298;18.996;2024-01-15T08:19:45;22.50;;;10.90;;
77880;SDS011;67077;50.298;18.996;2024-01-15T08:22:13;19.80;;;10.30;;
77880;SDS011;67077;50.298;18.996;2024-01-15T08:24:41;21.60;;;9.90;;
77880;SDS011;67077;50.298;18.996;2024-01-15T08:27:09;21.20;;;10.20;;
77880;SDS011;67077;50.298;18.996;2024-01-15T08:29:37;23.00;;;11.30;;
77880;SDS011;67077;50.298;18.996;2024-01-15T08:32:07;23.50;;;10.90;;
77880;SDS011;67077;50.298;18.996;2024-01-15T08:34:41;24.40;;;11.40;;
77880;SDS011;67077;50.298;18.996;2024-01-15T08:37:12;22.90;;;12.30;;
77880;SDS011;67077;50.298;18.996;2024-01-15T08:39:40;23.20;;;11.50;;
77880;SDS011;67077;50.298;18.996;2024-01-15T08:42:08;28.20;;;14.20;;
77880;SDS011;67077;50.298;18.996;2024-01-15T08:44:36;26.20;;;12.60;;
77880;SDS011;67077;50.298;18.996;2024-01-15T08:47:03;25.90;;;12.90;;
77880;SDS011;67077;50.298;18.996;2024-01-15T08:49:31;24.40;;;12.60;;
77880;SDS011;67077;50.298;18.996;2024-01-15T08:51:59;27.40;;;12.80;;
77880;SDS011;67077;50.298;18.996;2024-01-15T08:54:27;24.10;;;11.60;;
77880;SDS011;67077;50.298;18.996;2024-01-15T08:56:55;24.70;;;11.40;;
77880;SDS011;67077;50.298;18.996;2024-01-15T08:59:23;25.40;;;12.00;;
77880;SDS011;67077;50.298;18.996;2024-01-15T09:01:53;20.50;;;10.60;;
77880;SDS011;67077;50.298;18.996;2024-01-15T09:04:21;20.80;;;10.40;;
77880;SDS011;67077;50.298;18.996;2024-01-15T09:06:49;23.50;;;10.20;;
77880;SDS011;67077;50.298;18.996;2024-01-15T09:09:17;21.10;;;9.80;;
77880;SDS011;67077;50.298;18.996;2024-01-15T09:11:45;19.40;;;10.20;;
77880;SDS011;67077;50.298;18.996;2024-01-15T09:14:13;22.50;;;9.50;;
77880;SDS011;67077;50.298;18.996;2024-01-15T09:16:40;23.90;;;11.50;;
77880;SDS011;67077;50.298;18.996;2024-01-15T09:19:08;25.50;;;11.50;;
77880;SDS011;67077;50.298;18.996;2024-01-15T09:21:38;32.20;;;12.80;;
77880;SDS011;67077;50.298;18.996;2024-01-15T09:24:06;30.00;;;13.30;;
77880;SDS011;67077;50.298;18.996;2024-01-15T09:26:33;30.10;;;12.70;;
77880;SDS011;67077;50.298;18.996;2024-01-15T09:29:01;29.00;;;14.00;;
77880;SDS011;67077;50.298;18.996;2024-01-15T09:31:30;30.90;;;13.40;;
77880;SDS011;67077;50.298;18.996;2024-01-15T09:33:58;32.60;;;15.20;;
77880;SDS011;67077;50.298;18.996;2024-01-15T09:36:27;30.00;;;14.30;;
77880;SDS011;67077;50.298;18.996;2024-01-15T09:38:55;34.30;;;16.50;;
77880;SDS011;67077;50.298;18.996;2024-01-15T09:41:23;38.80;;;17.90;;
77880;SDS011;67077;50.298;18.996;2024-01-15T09:43:51;35.10;;;17.00;;
77880;SDS011;67077;50.298;18.996;2024-01-15T09:46:19;28.10;;;13.70;;
77880;SDS011;67077;50.298;18.996;2024-01-15T09:48:47;33.80;;;15.90;;
77880;SDS011;67077;50.298;18.996;2024-01-15T09:51:15;31.60;;;14.30;;
77880;SDS011;67077;50.298;18.996;2024-01-15T09:53:43;28.20;;;13.80;;
77880;SDS011;67077;50.298;18.996;2024-01-15T09:56:13;30.50;;;14.60;;
77880;SDS011;67077;50.298;18.996;2024-01-15T09:58:43;26.00;;;12.40;;
77880;SDS011;67077;50.298;18.996;2024-01-15T10:01:12;27.60;;;13.60;;
77880;SDS011;67077;50.298;18.996;2024-01-15T10:03:42;30.30;;;14.40;;
77880;SDS011;67077;50.298;18.996;2024-01-15T10:06:10;29.60;;;13.90;;
77880;SDS011;67077;50.298;18.996;2024-01-15T10:08:43;32.20;;;15.20;;
77880;SDS011;67077;50.298;18.996;2024-01-15T10:11:16;32.40;;;15.40;;
77880;SDS011;67077;50.298;18.996;2024-01-15T10:13:44;34.60;;;15.10;;
77880;SDS011;67077;50.298;18.996;2024-01-15T10:16:12;30.30;;;14.30;;
77880;SDS011;67077;50.298;18.996;2024-01-15T10:18:40;32.30;;;13.30;;
77880;SDS011;67077;50.298;18.996;2024-01-15T10:21:07;29.90;;;13.90;;
77880;SDS011;67077;50.298;18.996;2024-01-15T10:23:35;29.40;;;14.90;;
77880;SDS011;67077;50.298;18.996;2024-01-15T10:26:06;27.50;;;14.30;;
77880;SDS011;67077;50.298;18.996;2024-01-15T10:28:34;36.40;;;16.90;;
77880;SDS011;67077;50.298;18.996;2024-01-15T10:31:02;26.90;;;13.00;;
77880;SDS011;67077;50.298;18.996;2024-01-15T10:33:33;33.00;;;13.80;;
77880;SDS011;67077;50.298;18.996;2024-01-15T10:36:01;27.30;;;13.40;;
77880;SDS011;67077;50.298;18.996;2024-01-15T10:38:32;26.00;;;12.60;;
77880;SDS011;67077;50.298;18.996;2024-01-15T10:41:00;23.70;;;11.80;;
77880;SDS011;67077;50.298;18.996;2024-01-15T10:43:30;23.10;;;10.70;;
77880;SDS011;67077;50.298;18.996;2024-01-15T10:45:57;25.10;;;12.70;;
77880;SDS011;67077;50.298;18.996;2024-01-15T10:48:26;25.40;;;12.20;;
77880;SDS011;67077;50.298;18.996;2024-01-15T10:50:56;22.00;;;11.30;;
77880;SDS011;67077;50.298;18.996;2024-01-15T10:53:26;24.10;;;11.30;;
77880;SDS011;67077;50.298;18.996;2024-01-15T10:55:55;22.30;;;11.10;;
77880;SDS011;67077;50.298;18.996;2024-01-15T10:58:24;19.50;;;10.60;;
77880;SDS011;67077;50.298;18.996;2024-01-15T11:00:58;19.10;;;9.20;;
77880;SDS011;67077;50.298;18.996;2024-01-15T11:03:29;18.30;;;9.90;;
77880;SDS011;67077;50.298;18.996;2024-01-15T11:05:57;21.50;;;10.30;;
77880;SDS011;67077;50.298;18.996;2024-01-15T11:08:26;26.10;;;11.60;;
77880;SDS011;67077;50.298;18.996;2024-01-15T11:10:54;22.80;;;11.10;;
77880;SDS011;67077;50.298;18.996;2024-01-15T11:13:39;22.20;;;10.50;;
77880;SDS011;67077;50.298;18.996;2024-01-15T11:16:11;22.90;;;11.70;;
77880;SDS011;67077;50.298;18.996;2024-01-15T11:21:24;25.60;;;12.50;;
77880;SDS011;67077;50.298;18.996;2024-01-15T11:23:57;31.20;;;14.30;;
77880;SDS011;67077;50.298;18.996;2024-01-15T11:29:00;27.40;;;13.50;;
77880;SDS011;67077;50.298;18.996;2024-01-15T11:34:07;27.60;;;13.30;;
77880;SDS011;67077;50.298;18.996;2024-01-15T11:41:56;25.80;;;12.70;;
77880;SDS011;67077;50.298;18.996;2024-01-15T11:44:25;27.40;;;13.90;;
77880;SDS011;67077;50.298;18.996;2024-01-15T11:47:00;22.70;;;11.50;;
77880;SDS011;67077;50.298;18.996;2024-01-15T11:52:25;25.30;;;12.90;;
77880;SDS011;67077;50.298;18.996;2024-01-15T11:55:00;26.10;;;12.30;;
77880;SDS011;67077;50.298;18.996;2024-01-15T11:57:40;26.40;;;13.40;;
77880;SDS011;67077;50.298;18.996;2024-01-15T12:00:13;25.00;;;12.40;;
77880;SDS011;67077;50.298;18.996;2024-01-15T12:02:42;21.80;;;11.40;;
77880;SDS011;67077;50.298;18.996;2024-01-15T12:05:18;26.90;;;12.70;;
77880;SDS011;67077;50.298;18.996;2024-01-15T12:07:47;23.80;;;11.50;;
77880;SDS011;67077;50.298;18.996;2024-01-15T12:10:17;23.60;;;11.60;;
77880;SDS011;67077;50.298;18.996;2024-01-15T12:15:34;26.90;;;12.80;;
77880;SDS011;67077;50.298;18.996;2024-01-15T12:18:02;25.90;;;12.60;;
77880;SDS011;67077;50.298;18.996;2024-01-15T12:20:39;23.80;;;12.10;;
77880;SDS011;67077;50.298;18.996;2024-01-15T12:23:07;26.80;;;13.00;;
77880;SDS011;67077;50.298;18.996;2024-01-15T12:25:35;25.70;;;12.20;;
77880;SDS011;67077;50.298;18.996;2024-01-15T12:28:03;25.00;;;13.30;;
77880;SDS011;67077;50.298;18.996;2024-01-15T12:30:34;28.20;;;13.60;;
77880;SDS011;67077;50.298;18.996;2024-01-15T12:33:03;26.70;;;13.40;;
77880;SDS011;67077;50.298;18.996;2024-01-15T12:35:35;28.60;;;14.00;;
77880;SDS011;67077;50.298;18.996;2024-01-15T12:38:04;27.20;;;14.00;;
77880;SDS011;67077;50.298;18.996;2024-01-15T12:40:34;27.90;;;13.80;;
77880;SDS011;67077;50.298;18.996;2024-01-15T12:43:02;28.30;;;14.00;;
77880;SDS011;67077;50.298;18.996;2024-01-15T12:45:30;31.00;;;14.50;;
77880;SDS011;67077;50.298;18.996;2024-01-15T12:47:58;28.90;;;14.60;;
77880;SDS011;67077;50.298;18.996;2024-01-15T12:50:27;31.90;;;14.40;;
77880;SDS011;67077;50.298;18.996;2024-01-15T12:52:55;29.50;;;13.80;;
77880;SDS011;67077;50.298;18.996;2024-01-15T12:55:23;28.80;;;13.40;;
77880;SDS011;67077;50.298;18.996;2024-01-15T12:57:53;27.80;;;13.00;;
77880;SDS011;67077;50.298;18.996;2024-01-15T13:00:22;34.00;;;15.70;;
77880;SDS011;67077;50.298;18.996;2024-01-15T13:02:52;32.50;;;13.70;;
77880;SDS011;67077;50.298;18.996;2024-01-15T13:05:21;36.00;;;14.80;;
77880;SDS011;67077;50.298;18.996;2024-01-15T13:07:50;31.30;;;14.00;;
77880;SDS011;67077;50.298;18.996;2024-01-15T13:10:17;30.90;;;13.80;;
77880;SDS011;67077;50.298;18.996;2024-01-15T13:12:48;26.60;;;12.00;;
77880;SDS011;67077;50.298;18.996;2024-01-15T13:15:16;25.20;;;11.40;;
77880;SDS011;67077;50.298;18.996;2024-01-15T13:17:46;26.70;;;12.20;;
77880;SDS011;67077;50.298;18.996;2024-01-15T13:20:14;25.50;;;12.40;;
77880;SDS011;67077;50.298;18.996;2024-01-15T13:22:42;29.20;;;13.60;;
77880;SDS011;67077;50.298;18.996;2024-01-15T13:25:13;25.40;;;12.20;;
77880;SDS011;67077;50.298;18.996;2024-01-15T13:27:41;29.20;;;14.00;;
77880;SDS011;67077;50.298;18.996;2024-01-15T13:30:09;29.00;;;13.80;;
77880;SDS011;67077;50.298;18.996;2024-01-15T13:32:38;28.10;;;12.50;;
77880;SDS011;67077;50.298;18.996;2024-01-15T13:35:06;26.90;;;12.20;;
77880;SDS011;67077;50.298;18.996;2024-01-15T13:37:37;32.30;;;13.40;;
77880;SDS011;67077;50.298;18.996;2024-01-15T13:40:08;28.10;;;13.20;;
77880;SDS011;67077;50.298;18.996;2024-01-15T13:42:37;27.00;;;12.50;;
77880;SDS011;67077;50.298;18.996;2024-01-15T13:45:08;30.60;;;12.90;;
77880;SDS011;67077;50.298;18.996;2024-01-15T13:47:36;24.50;;;10.90;;
77880;SDS011;67077;50.298;18.996;2024-01-15T13:50:05;28.00;;;10.90;;
77880;SDS011;67077;50.298;18.996;2024-01-15T13:52:34;27.50;;;12.50;;
77880;SDS011;67077;50.298;18.996;2024-01-15T13:55:02;25.00;;;11.90;;
77880;SDS011;67077;50.298;18.996;2024-01-15T13:57:35;26.70;;;12.50;;
77880;SDS011;67077;50.298;18.996;2024-01-15T14:00:05;28.20;;;12.80;;
77880;SDS011;67077;50.298;18.996;2024-01-15T14:02:38;26.10;;;12.20;;
77880;SDS011;67077;50.298;18.996;2024-01-15T14:05:09;26.20;;;12.20;;
77880;SDS011;67077;50.298;18.996;2024-01-15T14:07:36;26.30;;;12.20;;
77880;SDS011;67077;50.298;18.996;2024-01-15T14:10:05;24.30;;;11.60;;
77880;SDS011;67077;50.298;18.996;2024-01-15T14:12:35;26.30;;;11.00;;
77880;SDS011;67077;50.298;18.996;2024-01-15T14:15:09;25.30;;;11.80;;
77880;SDS011;67077;50.298;18.996;2024-01-15T14:17:37;24.70;;;11.60;;
77880;SDS011;67077;50.298;18.996;2024-01-15T14:20:05;25.10;;;11.60;;
77880;SDS011;67077;50.298;18.996;2024-01-15T14:22:37;24.00;;;11.10;;
77880;SDS011;67077;50.298;18.996;2024-01-15T14:25:08;23.60;;;10.50;;
77880;SDS011;67077;50.298;18.996;2024-01-15T14:27:36;21.80;;;10.50;;
77880;SDS011;67077;50.298;18.996;2024-01-15T14:30:07;20.40;;;9.70;;
77880;SDS011;67077;50.298;18.996;2024-01-15T14:32:36;23.30;;;10.10;;
77880;SDS011;67077;50.298;18.996;2024-01-15T14:35:07;22.70;;;10.80;;
77880;SDS011;67077;50.298;18.996;2024-01-15T14:37:38;22.40;;;10.10;;
77880;SDS011;67077;50.298;18.996;2024-01-15T14:40:08;24.30;;;10.70;;
77880;SDS011;67077;50.298;18.996;2024-01-15T14:42:38;22.80;;;9.90;;